Time;durP1;ratioP1;P1;durP2;ratioP2;P2;SDS_P1;SDS_P2;PMS_P1;PMS_P2;Temp;Humidity;BMP_temperature;BMP_pressure;BME280_temperature;BME280_humidity;BME280_pressure;Samples;Min_cycle;Max_cycle;Signal;HPM_P1;HPM_P2
2023/05/25 00:00:52;;;;;;;16.58;6.38;;;10.30;99.90;;;;;;5044172;28;20407;-66
2023/05/25 00:03:19;;;;;;;21.83;7.35;;;10.30;99.90;;;;;;5044787;28;20668;-66
2023/05/25 00:05:45;;;;;;;23.63;6.65;;;10.20;99.90;;;;;;5034065;28;20500;-66
2023/05/25 00:08:10;;;;;;;23.38;7.38;;;10.20;99.90;;;;;;5044766;28;20083;-66
2023/05/25 00:10:36;;;;;;;18.77;7.15;;;10.20;99.90;;;;;;5044231;28;20051;-67
2023/05/25 00:13:02;;;;;;;18.15;7.32;;;10.10;99.90;;;;;;5041181;28;20503;-66
2023/05/25 00:15:27;;;;;;;27.52;7.00;;;10.10;99.90;;;;;;5043726;28;20037;-66
2023/05/25 00:17:54;;;;;;;24.13;8.00;;;10.10;99.90;;;;;;5043579;28;20309;-66
2023/05/25 00:20:20;;;;;;;23.58;7.60;;;10.00;99.90;;;;;;5044011;28;20520;-66
2023/05/25 00:22:45;;;;;;;18.60;7.18;;;10.00;99.90;;;;;;5042559;28;20052;-66
2023/05/25 00:25:11;;;;;;;29.80;8.27;;;10.00;99.90;;;;;;5043591;28;20045;-66
2023/05/25 00:27:37;;;;;;;20.40;7.55;;;10.00;99.90;;;;;;5061442;28;20037;-66
2023/05/25 00:30:03;;;;;;;20.45;7.47;;;10.00;99.90;;;;;;5065134;28;20044;-67
2023/05/25 00:32:29;;;;;;;18.75;7.35;;;10.00;99.90;;;;;;5063516;28;20040;-66
2023/05/25 00:34:55;;;;;;;20.42;8.23;;;10.00;99.90;;;;;;5046648;28;20403;-67
2023/05/25 00:37:20;;;;;;;22.20;8.50;;;10.00;99.90;;;;;;5051016;28;20903;-67
2023/05/25 00:39:46;;;;;;;19.95;7.18;;;10.00;99.90;;;;;;5058694;28;20056;-67
2023/05/25 00:42:12;;;;;;;16.83;7.10;;;10.00;99.90;;;;;;5045736;28;20052;-66
2023/05/25 00:44:38;;;;;;;19.90;6.78;;;10.00;99.90;;;;;;5059765;28;20128;-68
2023/05/25 00:47:04;;;;;;;17.98;6.60;;;9.90;99.90;;;;;;5043338;28;20439;-67
2023/05/25 00:49:34;;;;;;;19.52;7.40;;;9.90;99.90;;;;;;5043394;28;20045;-66
2023/05/25 00:52:00;;;;;;;19.17;6.72;;;9.80;99.90;;;;;;5043767;28;20493;-66
2023/05/25 00:54:26;;;;;;;18.83;7.70;;;9.70;99.90;;;;;;5044678;28;20037;-67
2023/05/25 00:56:56;;;;;;;19.25;7.80;;;9.70;99.90;;;;;;5043136;28;20073;-67
2023/05/25 00:59:34;;;;;;;20.95;7.25;;;9.70;99.90;;;;;;5043449;28;20110;-68
2023/05/25 01:02:06;;;;;;;19.05;7.47;;;9.70;99.90;;;;;;5026468;28;20106;-67
2023/05/25 01:04:34;;;;;;;16.30;6.75;;;9.70;99.90;;;;;;5060114;28;20036;-67
2023/05/25 01:07:03;;;;;;;15.43;7.43;;;9.60;99.90;;;;;;5052647;28;20033;-68
2023/05/25 01:09:33;;;;;;;22.23;8.13;;;9.60;99.90;;;;;;5057534;28;20053;-68
2023/05/25 01:12:01;;;;;;;23.95;8.48;;;9.50;99.90;;;;;;5063861;28;20040;-69
2023/05/25 01:14:27;;;;;;;25.35;8.52;;;9.50;99.90;;;;;;5045592;28;20041;-66
2023/05/25 01:16:57;;;;;;;23.90;9.13;;;9.50;99.90;;;;;;5043008;28;20068;-67
2023/05/25 01:19:24;;;;;;;23.75;8.80;;;9.60;99.90;;;;;;5027423;28;20492;-67
2023/05/25 01:21:58;;;;;;;22.70;9.20;;;9.60;99.90;;;;;;5059587;28;20547;-68
2023/05/25 01:24:32;;;;;;;22.17;9.13;;;9.50;99.90;;;;;;5042434;28;20128;-68
2023/05/25 01:27:07;;;;;;;25.65;8.65;;;9.50;99.90;;;;;;5026234;28;20285;-67
2023/05/25 01:29:34;;;;;;;21.75;8.38;;;9.60;99.90;;;;;;5042128;28;20084;-68
2023/05/25 01:32:02;;;;;;;20.67;8.32;;;9.60;99.90;;;;;;5046641;28;20041;-67
2023/05/25 01:34:29;;;;;;;22.67;9.05;;;9.60;99.90;;;;;;5048767;28;20116;-68
2023/05/25 01:36:55;;;;;;;22.80;8.77;;;9.50;99.90;;;;;;5047321;28;20664;-68
2023/05/25 01:39:21;;;;;;;26.02;8.52;;;9.50;99.90;;;;;;5047228;28;20404;-67
2023/05/25 01:41:47;;;;;;;18.67;8.07;;;9.50;99.90;;;;;;5046477;28;20033;-67
2023/05/25 01:44:14;;;;;;;18.00;7.90;;;9.50;99.90;;;;;;5046433;28;20039;-67
2023/05/25 01:46:40;;;;;;;25.05;8.07;;;9.50;99.90;;;;;;5045997;28;20053;-67
2023/05/25 01:49:28;;;;;;;20.65;8.18;;;9.50;99.90;;;;;;5046886;28;20136;-66
2023/05/25 01:52:17;;;;;;;17.27;7.72;;;9.40;99.90;;;;;;5046604;28;20045;-68
2023/05/25 01:55:05;;;;;;;22.95;8.80;;;9.30;99.90;;;;;;5046172;28;20040;-68
2023/05/25 01:57:34;;;;;;;22.55;8.63;;;9.40;99.90;;;;;;5045079;28;20068;-68
2023/05/25 02:00:02;;;;;;;21.15;9.10;;;9.30;99.90;;;;;;5046906;28;20559;-67
2023/05/25 02:02:29;;;;;;;22.95;9.00;;;9.30;99.90;;;;;;5029919;28;20063;-67
2023/05/25 02:04:55;;;;;;;24.95;10.88;;;9.40;99.90;;;;;;5046450;28;20097;-68
2023/05/25 02:07:24;;;;;;;30.25;10.00;;;9.40;99.90;;;;;;5029252;28;20091;-67
2023/05/25 02:09:50;;;;;;;22.67;8.75;;;9.40;99.90;;;;;;5046403;28;20521;-67
2023/05/25 02:12:16;;;;;;;24.63;8.55;;;9.40;99.90;;;;;;5045398;28;20044;-68
2023/05/25 02:14:42;;;;;;;25.30;9.57;;;9.40;99.90;;;;;;5047608;28;20037;-68
2023/05/25 02:17:07;;;;;;;25.17;9.13;;;9.40;99.90;;;;;;5046070;28;20334;-68
2023/05/25 02:19:34;;;;;;;28.02;9.98;;;9.50;99.90;;;;;;5046190;28;20044;-68
2023/05/25 02:22:00;;;;;;;22.63;9.75;;;9.40;99.90;;;;;;5046513;28;20515;-69
2023/05/25 02:24:26;;;;;;;24.08;9.82;;;9.50;99.90;;;;;;5062320;28;20116;-68
2023/05/25 02:26:51;;;;;;;24.60;10.25;;;9.50;99.90;;;;;;5045745;28;20405;-68
2023/05/25 02:29:17;;;;;;;20.27;8.50;;;9.50;99.90;;;;;;5058346;28;20037;-68
2023/05/25 02:31:43;;;;;;;19.42;8.35;;;9.50;99.90;;;;;;5029285;28;20395;-67
2023/05/25 02:34:10;;;;;;;26.75;9.10;;;9.60;99.90;;;;;;5029643;28;20041;-68
2023/05/25 02:36:36;;;;;;;24.30;8.85;;;9.50;99.90;;;;;;5048680;28;20391;-68
2023/05/25 02:39:02;;;;;;;18.73;8.02;;;9.50;99.90;;;;;;5082437;28;20046;-67
2023/05/25 02:41:28;;;;;;;24.00;8.20;;;9.40;99.90;;;;;;5066697;28;20059;-68
2023/05/25 02:43:54;;;;;;;24.98;9.65;;;9.50;99.90;;;;;;5049461;28;20440;-67
2023/05/25 02:46:21;;;;;;;22.33;9.25;;;9.40;99.90;;;;;;5062039;28;20037;-69
2023/05/25 02:48:47;;;;;;;30.13;10.27;;;9.40;99.90;;;;;;5045215;28;20153;-67
2023/05/25 02:51:13;;;;;;;29.75;9.35;;;9.40;99.90;;;;;;5045704;28;20337;-67
2023/05/25 02:53:39;;;;;;;29.52;9.70;;;9.40;99.90;;;;;;5044678;28;20036;-68
2023/05/25 02:56:05;;;;;;;30.23;10.63;;;9.30;99.90;;;;;;5028582;28;20076;-66
2023/05/25 02:58:31;;;;;;;20.38;9.15;;;9.30;99.90;;;;;;5061516;28;20535;-67
2023/05/25 03:00:58;;;;;;;21.25;9.88;;;9.40;99.90;;;;;;5045212;28;20065;-66
2023/05/25 03:03:25;;;;;;;23.02;9.93;;;9.30;99.90;;;;;;5045575;28;20037;-68
2023/05/25 03:05:51;;;;;;;26.52;10.38;;;9.40;99.90;;;;;;5044809;28;20076;-68
2023/05/25 03:08:17;;;;;;;32.15;11.32;;;9.40;99.90;;;;;;5044504;28;20032;-68
2023/05/25 03:10:44;;;;;;;27.27;11.10;;;9.30;99.90;;;;;;5045435;28;20527;-68
2023/05/25 03:13:10;;;;;;;26.55;9.95;;;9.40;99.90;;;;;;5027598;28;20044;-67
2023/05/25 03:15:35;;;;;;;22.42;9.90;;;9.30;99.90;;;;;;5044850;28;20041;-68
2023/05/25 03:18:01;;;;;;;21.48;9.80;;;9.30;99.90;;;;;;5046130;28;20041;-67
2023/05/25 03:20:27;;;;;;;22.38;10.23;;;9.30;99.90;;;;;;5044866;28;20567;-67
2023/05/25 03:22:54;;;;;;;25.33;10.07;;;9.30;99.90;;;;;;5060441;28;20452;-67
2023/05/25 03:25:20;;;;;;;25.95;10.65;;;9.30;99.90;;;;;;5046083;28;20123;-67
2023/05/25 03:27:46;;;;;;;21.92;9.50;;;9.30;99.90;;;;;;5042983;28;20476;-69
2023/05/25 03:30:12;;;;;;;20.15;9.60;;;9.30;99.90;;;;;;5045216;28;20044;-67
2023/05/25 03:32:38;;;;;;;27.33;10.27;;;9.30;99.90;;;;;;5045845;28;20166;-67
2023/05/25 03:35:05;;;;;;;26.67;10.95;;;9.30;99.90;;;;;;5044883;28;20116;-68
2023/05/25 03:37:31;;;;;;;26.25;11.32;;;9.30;99.90;;;;;;5044276;28;20490;-68
2023/05/25 03:39:56;;;;;;;27.08;11.30;;;9.30;99.90;;;;;;5027532;28;20140;-69
2023/05/25 03:42:22;;;;;;;28.23;11.50;;;9.30;99.90;;;;;;5027366;28;20428;-67
2023/05/25 03:44:48;;;;;;;37.08;12.43;;;9.30;99.90;;;;;;5044354;28;20044;-67
2023/05/25 03:47:13;;;;;;;24.27;10.48;;;9.40;99.90;;;;;;5027906;28;20091;-69
2023/05/25 03:49:39;;;;;;;23.77;10.60;;;9.40;99.90;;;;;;5044537;28;20039;-69
2023/05/25 03:52:05;;;;;;;19.75;10.30;;;9.40;99.90;;;;;;5051045;28;20081;-69
2023/05/25 03:54:31;;;;;;;30.67;10.95;;;9.50;99.90;;;;;;5080579;28;20127;-67
2023/05/25 03:57:02;;;;;;;26.73;11.07;;;9.50;99.90;;;;;;5063379;28;20041;-67
2023/05/25 03:59:28;;;;;;;29.90;11.77;;;9.50;99.90;;;;;;5047710;28;20067;-67
2023/05/25 04:01:54;;;;;;;30.27;12.48;;;9.70;99.90;;;;;;5027165;28;20053;-69
2023/05/25 04:04:19;;;;;;;33.60;11.65;;;9.80;99.90;;;;;;5052355;28;20045;-68
2023/05/25 04:06:47;;;;;;;26.50;11.23;;;9.90;99.90;;;;;;5059203;28;20048;-68
2023/05/25 04:09:14;;;;;;;31.42;11.68;;;10.10;99.90;;;;;;5060386;28;20395;-67
2023/05/25 04:11:40;;;;;;;27.17;10.75;;;10.30;99.90;;;;;;5043766;28;20041;-67
2023/05/25 04:14:05;;;;;;;27.10;11.10;;;10.60;99.90;;;;;;5041664;28;20412;-70
2023/05/25 04:16:31;;;;;;;25.70;10.63;;;10.80;99.90;;;;;;5060493;28;20041;-67
2023/05/25 04:18:57;;;;;;;23.80;10.77;;;11.00;99.90;;;;;;5044281;28;20037;-69
2023/05/25 04:21:23;;;;;;;22.55;9.80;;;11.30;99.90;;;;;;5060106;28;20615;-67
2023/05/25 04:23:49;;;;;;;30.15;9.75;;;11.60;99.90;;;;;;5044364;28;20044;-68
2023/05/25 04:26:15;;;;;;;22.23;9.93;;;11.80;99.90;;;;;;5043442;28;20183;-67
2023/05/25 04:28:41;;;;;;;22.95;9.18;;;12.00;99.90;;;;;;5043462;28;20045;-67
2023/05/25 04:31:07;;;;;;;22.58;8.77;;;12.10;99.90;;;;;;5043629;28;20041;-68
2023/05/25 04:33:37;;;;;;;19.38;8.18;;;12.30;99.90;;;;;;5030715;28;20712;-68
2023/05/25 04:36:04;;;;;;;17.92;8.68;;;12.50;99.90;;;;;;5027080;28;20506;-68
2023/05/25 04:38:31;;;;;;;25.75;8.60;;;12.70;99.90;;;;;;5059496;28;20044;-69
2023/05/25 04:41:04;;;;;;;20.92;8.48;;;12.80;99.90;;;;;;5060148;28;20429;-67
2023/05/25 04:43:30;;;;;;;17.27;7.35;;;13.00;99.90;;;;;;5043165;28;20597;-69
2023/05/25 04:45:56;;;;;;;16.95;7.40;;;13.30;99.90;;;;;;5043024;28;20041;-68
2023/05/25 04:48:23;;;;;;;15.10;6.63;;;13.50;99.90;;;;;;5043765;28;20033;-68
2023/05/25 04:50:50;;;;;;;16.80;6.82;;;13.70;99.90;;;;;;5046405;28;20053;-70
2023/05/25 04:53:16;;;;;;;16.40;6.60;;;13.90;99.90;;;;;;5044957;28;20033;-70
2023/05/25 04:55:42;;;;;;;16.17;6.43;;;14.20;99.90;;;;;;5043049;28;20037;-69
2023/05/25 04:58:08;;;;;;;16.67;6.80;;;14.30;99.90;;;;;;5043804;28;20064;-69
2023/05/25 05:00:34;;;;;;;14.73;6.90;;;14.40;99.90;;;;;;5043676;28;20049;-68
2023/05/25 05:02:59;;;;;;;13.13;5.57;;;14.70;99.90;;;;;;5044363;28;20455;-69
2023/05/25 05:05:25;;;;;;;14.57;5.35;;;14.90;99.90;;;;;;5045404;28;20037;-68
2023/05/25 05:07:52;;;;;;;16.83;6.20;;;15.40;99.90;;;;;;5048204;28;20060;-69
2023/05/25 05:10:19;;;;;;;14.75;5.43;;;16.10;99.90;;;;;;5031279;28;20420;-68
2023/05/25 05:12:45;;;;;;;18.15;5.90;;;16.60;99.90;;;;;;5051855;28;20036;-68
2023/05/25 05:15:10;;;;;;;19.67;6.28;;;17.40;99.90;;;;;;5064931;28;20044;-69
2023/05/25 05:17:37;;;;;;;14.75;5.60;;;18.10;99.90;;;;;;5066489;28;20090;-68
2023/05/25 05:20:04;;;;;;;17.67;5.68;;;18.60;99.90;;;;;;5066095;28;20047;-68
2023/05/25 05:22:31;;;;;;;15.07;5.72;;;18.80;99.90;;;;;;5048358;28;20044;-68
2023/05/25 05:24:58;;;;;;;15.45;5.90;;;19.10;99.90;;;;;;5049118;28;20624;-67
2023/05/25 05:27:25;;;;;;;16.40;5.70;;;18.80;99.90;;;;;;5064917;28;20097;-69
2023/05/25 05:29:50;;;;;;;21.63;6.13;;;18.20;99.90;;;;;;5050007;28;20679;-68
2023/05/25 05:32:16;;;;;;;16.48;5.55;;;17.60;99.90;;;;;;5066952;28;20040;-66
2023/05/25 05:34:42;;;;;;;18.10;5.75;;;16.90;99.90;;;;;;5059388;28;20044;-69
2023/05/25 05:37:08;;;;;;;16.42;5.95;;;16.30;99.90;;;;;;5047739;28;20746;-67
2023/05/25 05:39:34;;;;;;;19.38;6.40;;;15.80;99.90;;;;;;5062608;28;20046;-65
2023/05/25 05:42:00;;;;;;;17.20;6.03;;;15.40;99.90;;;;;;5048617;28;20487;-66
2023/05/25 05:44:26;;;;;;;19.33;6.40;;;14.90;99.90;;;;;;5062189;28;20040;-65
2023/05/25 05:46:51;;;;;;;19.02;5.90;;;14.60;99.90;;;;;;5047775;28;20037;-68
2023/05/25 05:49:17;;;;;;;16.50;6.03;;;14.30;99.90;;;;;;5063566;28;20499;-65
2023/05/25 05:51:43;;;;;;;17.83;5.80;;;14.00;99.90;;;;;;5046638;28;20040;-65
2023/05/25 05:54:08;;;;;;;16.75;5.90;;;13.70;99.90;;;;;;5055440;28;20043;-68
2023/05/25 05:56:35;;;;;;;17.02;5.72;;;13.50;99.90;;;;;;5066666;28;20275;-63
2023/05/25 05:59:00;;;;;;;18.10;6.07;;;13.40;99.90;;;;;;5047044;28;20169;-66
2023/05/25 06:01:26;;;;;;;18.95;5.93;;;13.20;99.90;;;;;;5064686;28;20138;-67
2023/05/25 06:03:53;;;;;;;18.60;6.43;;;13.10;99.90;;;;;;5060356;28;20043;-64
2023/05/25 06:06:19;;;;;;;20.02;5.80;;;13.00;99.90;;;;;;5045005;28;20041;-68
2023/05/25 06:08:45;;;;;;;16.20;5.10;;;13.00;99.90;;;;;;5062520;28;20538;-64
2023/05/25 06:11:11;;;;;;;16.23;5.70;;;13.00;99.90;;;;;;5061328;28;20037;-68
2023/05/25 06:13:36;;;;;;;18.02;5.95;;;13.10;99.90;;;;;;5071996;28;20032;-64
2023/05/25 06:16:02;;;;;;;18.95;5.60;;;13.10;99.90;;;;;;5047433;28;20926;-65
2023/05/25 06:18:28;;;;;;;18.75;5.70;;;13.20;99.90;;;;;;5048168;28;20519;-64
2023/05/25 06:20:53;;;;;;;18.27;5.55;;;13.20;99.90;;;;;;5060596;28;20744;-65
2023/05/25 06:23:19;;;;;;;21.05;5.43;;;13.20;99.90;;;;;;5061336;28;20044;-64
2023/05/25 06:25:45;;;;;;;22.08;5.45;;;13.20;99.90;;;;;;5064430;28;20526;-64
2023/05/25 06:28:11;;;;;;;21.98;5.70;;;13.30;99.90;;;;;;5058380;28;20041;-63
2023/05/25 06:30:37;;;;;;;19.50;5.40;;;13.40;99.90;;;;;;5045061;28;20056;-66
2023/05/25 06:33:03;;;;;;;17.17;4.93;;;13.50;99.90;;;;;;5044371;28;20047;-63
2023/05/25 06:35:28;;;;;;;21.40;4.88;;;13.60;99.90;;;;;;5044422;28;20083;-64
2023/05/25 06:37:54;;;;;;;21.67;4.50;;;14.00;99.90;;;;;;5043460;28;20067;-65
2023/05/25 06:40:21;;;;;;;23.73;5.18;;;14.10;99.90;;;;;;5044645;28;20091;-65
2023/05/25 06:42:46;;;;;;;21.33;5.18;;;13.90;99.90;;;;;;5045589;28;20132;-63
2023/05/25 06:45:12;;;;;;;27.45;5.43;;;13.70;99.90;;;;;;5064229;28;20120;-63
2023/05/25 06:47:38;;;;;;;22.95;5.45;;;13.70;99.90;;;;;;5063716;28;20098;-67
2023/05/25 06:50:05;;;;;;;21.27;5.78;;;13.60;99.90;;;;;;5064444;28;20113;-64
2023/05/25 06:52:30;;;;;;;27.42;5.22;;;13.60;99.90;;;;;;5035643;28;20049;-63
2023/05/25 06:54:56;;;;;;;18.30;4.78;;;13.60;99.90;;;;;;5044067;28;20094;-65
2023/05/25 06:57:23;;;;;;;24.63;4.80;;;13.50;99.90;;;;;;4994883;28;1392057;-67
2023/05/25 06:59:48;;;;;;;18.95;4.22;;;13.50;99.90;;;;;;5045777;28;20056;-64
2023/05/25 07:02:14;;;;;;;23.58;4.95;;;13.40;99.90;;;;;;5045064;28;20040;-67
2023/05/25 07:04:40;;;;;;;22.15;4.68;;;13.40;99.90;;;;;;5045609;28;20041;-62
2023/05/25 07:07:06;;;;;;;23.73;5.47;;;13.50;99.90;;;;;;5045067;28;20040;-64
2023/05/25 07:09:32;;;;;;;24.48;4.70;;;13.50;99.90;;;;;;5044650;28;20051;-62
2023/05/25 07:11:57;;;;;;;26.52;5.85;;;13.50;99.90;;;;;;5045905;28;20036;-65
2023/05/25 07:14:24;;;;;;;26.30;6.03;;;13.60;99.90;;;;;;5044951;28;20043;-66
2023/05/25 07:16:49;;;;;;;22.88;5.40;;;13.50;99.90;;;;;;5061538;28;20283;-64
2023/05/25 07:19:15;;;;;;;19.17;4.78;;;13.40;99.90;;;;;;5045425;28;20052;-63
2023/05/25 07:21:41;;;;;;;25.70;5.65;;;13.40;99.90;;;;;;5047626;28;20047;-67
2023/05/25 07:24:06;;;;;;;28.70;5.65;;;13.60;99.90;;;;;;5081128;28;20225;-63
2023/05/25 07:26:35;;;;;;;25.58;6.20;;;13.70;99.90;;;;;;5064496;28;20765;-65
2023/05/25 07:29:01;;;;;;;25.58;6.65;;;13.80;99.90;;;;;;5042607;28;20419;-64
2023/05/25 07:31:26;;;;;;;28.48;5.20;;;13.80;99.90;;;;;;5044884;28;20037;-63
2023/05/25 07:33:54;;;;;;;24.65;4.65;;;13.80;99.90;;;;;;5045501;28;20044;-64
2023/05/25 07:36:19;;;;;;;26.60;5.68;;;13.80;99.90;;;;;;5044544;28;20051;-62
2023/05/25 07:38:46;;;;;;;21.48;5.30;;;13.80;99.90;;;;;;5044860;28;20041;-65
2023/05/25 07:41:12;;;;;;;21.00;5.00;;;13.70;99.90;;;;;;5045563;28;20132;-63
2023/05/25 07:43:38;;;;;;;26.15;5.03;;;13.70;99.90;;;;;;5043697;28;20490;-62
2023/05/25 07:46:04;;;;;;;26.20;4.95;;;13.60;99.90;;;;;;5043766;28;20075;-62
2023/05/25 07:48:30;;;;;;;23.42;5.53;;;13.50;99.90;;;;;;5044827;28;20130;-64
2023/05/25 07:50:56;;;;;;;20.83;5.35;;;13.50;99.90;;;;;;5028408;28;20072;-64
2023/05/25 07:53:21;;;;;;;29.55;5.15;;;13.60;99.90;;;;;;5044609;28;20108;-63
2023/05/25 07:55:47;;;;;;;24.65;5.72;;;13.50;99.90;;;;;;5043639;28;20712;-63
2023/05/25 07:58:13;;;;;;;26.75;5.85;;;13.50;99.90;;;;;;5043254;28;20053;-63
2023/05/25 08:00:38;;;;;;;27.38;5.35;;;13.40;99.90;;;;;;5044204;28;20037;-66
2023/05/25 08:03:04;;;;;;;26.40;5.57;;;13.30;99.90;;;;;;5060462;28;20107;-68
2023/05/25 08:05:30;;;;;;;26.17;5.53;;;13.40;99.90;;;;;;5044533;28;20055;-66
2023/05/25 08:07:56;;;;;;;20.95;5.28;;;13.40;99.90;;;;;;5044210;28;20148;-64
2023/05/25 08:10:22;;;;;;;23.80;5.47;;;13.50;99.90;;;;;;5046222;28;20112;-65
2023/05/25 08:12:48;;;;;;;27.65;5.70;;;13.60;99.90;;;;;;5043461;28;20518;-64
2023/05/25 08:15:14;;;;;;;29.27;5.57;;;13.80;99.90;;;;;;5043813;28;20032;-63
2023/05/25 08:17:40;;;;;;;30.67;6.55;;;13.90;99.90;;;;;;5043784;28;20122;-67
2023/05/25 08:20:07;;;;;;;30.27;5.22;;;14.00;99.90;;;;;;5044345;28;20048;-64
2023/05/25 08:22:34;;;;;;;27.20;5.70;;;14.30;99.90;;;;;;5043148;28;20082;-62
2023/05/25 08:24:59;;;;;;;32.30;6.30;;;14.50;99.90;;;;;;5043581;28;20045;-65
2023/05/25 08:27:25;;;;;;;29.38;5.10;;;14.60;99.90;;;;;;5043790;28;20045;-66
2023/05/25 08:29:51;;;;;;;30.52;5.78;;;14.50;99.90;;;;;;5043818;28;20041;-64
2023/05/25 08:32:17;;;;;;;31.08;5.43;;;14.50;99.90;;;;;;5044852;28;20107;-64
2023/05/25 08:34:42;;;;;;;24.35;5.32;;;14.40;99.90;;;;;;5043129;28;20052;-65
2023/05/25 08:37:08;;;;;;;31.88;6.22;;;14.40;99.90;;;;;;5060041;28;20526;-63
2023/05/25 08:39:34;;;;;;;27.98;5.28;;;14.40;99.90;;;;;;5059946;28;20044;-62
2023/05/25 08:41:59;;;;;;;24.77;5.63;;;14.30;99.90;;;;;;5044338;28;20112;-63
2023/05/25 08:44:26;;;;;;;28.35;6.85;;;14.30;99.90;;;;;;5043560;28;20535;-64
2023/05/25 08:46:55;;;;;;;33.13;6.40;;;14.20;99.90;;;;;;5045259;28;20048;-65
2023/05/25 08:49:22;;;;;;;25.20;5.40;;;14.20;99.90;;;;;;5043345;28;20459;-64
2023/05/25 08:51:49;;;;;;;30.38;5.78;;;14.30;99.90;;;;;;5059960;28;20037;-61
2023/05/25 08:54:18;;;;;;;25.88;5.68;;;14.30;99.90;;;;;;5042881;28;20084;-63
2023/05/25 08:56:50;;;;;;;31.02;6.25;;;14.40;99.90;;;;;;5042866;28;20045;-63
2023/05/25 08:59:53;;;;;;;26.02;5.55;;;14.30;99.90;;;;;;5026345;28;20500;-63
2023/05/25 09:02:45;;;;;;;27.70;5.57;;;14.30;99.90;;;;;;5043734;28;20103;-64
2023/05/25 09:05:12;;;;;;;31.88;5.88;;;14.40;99.40;;;;;;5043666;28;20353;-64
2023/05/25 09:07:40;;;;;;;28.08;5.78;;;14.30;99.90;;;;;;5042431;28;20119;-62
2023/05/25 09:10:07;;;;;;;31.10;6.28;;;14.40;99.90;;;;;;5044777;28;20041;-61
2023/05/25 09:12:36;;;;;;;39.13;6.22;;;14.40;99.90;;;;;;5041859;28;20037;-65
2023/05/25 09:15:02;;;;;;;27.38;6.50;;;14.40;99.90;;;;;;5044412;28;20495;-64
2023/05/25 09:17:30;;;;;;;26.52;6.53;;;14.40;99.90;;;;;;5044969;28;20053;-66
2023/05/25 09:19:57;;;;;;;24.33;5.50;;;14.30;99.90;;;;;;5044635;28;20045;-63
2023/05/25 09:22:23;;;;;;;33.15;5.82;;;14.30;99.90;;;;;;5042642;28;20074;-61
2023/05/25 09:24:49;;;;;;;26.38;5.40;;;14.40;99.90;;;;;;5042762;28;20072;-66
2023/05/25 09:27:21;;;;;;;23.52;4.75;;;14.50;99.90;;;;;;5058940;28;20087;-64
2023/05/25 09:29:48;;;;;;;24.63;5.28;;;14.50;99.60;;;;;;5043289;28;20044;-66
2023/05/25 09:32:14;;;;;;;26.15;5.38;;;14.40;99.50;;;;;;5042900;28;20726;-64
2023/05/25 09:34:45;;;;;;;37.78;6.63;;;14.30;99.90;;;;;;5042794;28;20036;-64
2023/05/25 09:37:12;;;;;;;25.02;5.53;;;14.20;99.90;;;;;;5042243;28;20151;-63
2023/05/25 09:39:42;;;;;;;24.70;5.25;;;14.20;99.90;;;;;;5026334;28;20037;-64
2023/05/25 09:42:08;;;;;;;25.05;6.18;;;14.40;99.90;;;;;;5042792;28;20052;-63
2023/05/25 09:44:34;;;;;;;27.73;5.60;;;14.70;99.90;;;;;;5058200;28;20095;-64
2023/05/25 09:47:01;;;;;;;26.13;5.32;;;14.70;99.90;;;;;;5062599;28;20036;-65
2023/05/25 09:49:26;;;;;;;33.30;6.05;;;14.70;99.90;;;;;;5062762;28;20068;-65
2023/05/25 09:51:52;;;;;;;24.83;5.55;;;14.40;99.90;;;;;;5054824;28;20629;-66
2023/05/25 09:54:18;;;;;;;27.25;5.47;;;14.10;99.90;;;;;;5047373;28;20037;-64
2023/05/25 09:56:44;;;;;;;29.85;5.82;;;14.20;99.90;;;;;;5047821;28;20447;-63
2023/05/25 09:59:10;;;;;;;28.33;5.43;;;14.40;99.90;;;;;;5046289;28;20068;-64
2023/05/25 10:01:36;;;;;;;31.48;6.00;;;14.40;99.90;;;;;;5046014;28;20099;-67
2023/05/25 10:04:02;;;;;;;23.42;5.07;;;14.40;99.90;;;;;;5046411;28;20045;-68
2023/05/25 10:06:28;;;;;;;33.70;6.57;;;14.20;99.90;;;;;;5046414;28;20080;-64
2023/05/25 10:08:56;;;;;;;24.35;5.63;;;14.20;99.90;;;;;;5047058;28;20048;-63
2023/05/25 10:11:23;;;;;;;26.55;5.05;;;14.30;99.90;;;;;;5046104;28;20106;-64
2023/05/25 10:13:50;;;;;;;26.17;5.55;;;14.50;99.90;;;;;;5045222;28;20037;-64
2023/05/25 10:16:17;;;;;;;30.20;6.35;;;14.50;99.50;;;;;;5047392;28;20045;-63
2023/05/25 10:18:47;;;;;;;29.58;5.78;;;14.50;99.90;;;;;;5065385;28;20036;-64
2023/05/25 10:21:16;;;;;;;28.75;6.15;;;14.60;99.90;;;;;;5040825;28;20076;-65
2023/05/25 10:23:49;;;;;;;30.35;6.45;;;14.50;99.90;;;;;;5046542;28;20041;-63
2023/05/25 10:26:21;;;;;;;30.15;6.38;;;14.50;99.90;;;;;;5046877;28;20044;-63
2023/05/25 10:28:50;;;;;;;30.67;7.20;;;14.50;99.90;;;;;;5045257;28;20124;-63
2023/05/25 10:31:17;;;;;;;27.52;6.38;;;14.70;99.90;;;;;;5046942;28;20037;-63
2023/05/25 10:33:44;;;;;;;24.42;5.80;;;14.90;99.90;;;;;;5046943;28;20036;-65
2023/05/25 10:36:12;;;;;;;33.33;6.47;;;15.00;99.90;;;;;;5045843;28;20083;-63
2023/05/25 10:38:43;;;;;;;20.15;5.47;;;15.10;99.90;;;;;;5044853;28;20123;-62
2023/05/25 10:41:10;;;;;;;27.40;6.30;;;15.20;99.90;;;;;;5046625;28;20048;-64
2023/05/25 10:43:39;;;;;;;26.58;5.82;;;15.30;99.80;;;;;;5028115;28;20156;-62
2023/05/25 10:46:06;;;;;;;24.23;5.65;;;15.50;99.40;;;;;;5045658;28;20074;-67
2023/05/25 10:48:39;;;;;;;27.45;5.40;;;15.40;98.50;;;;;;5045451;28;20049;-66
2023/05/25 10:51:06;;;;;;;30.63;6.03;;;15.10;98.00;;;;;;5045262;28;20037;-61
2023/05/25 10:53:31;;;;;;;21.90;5.05;;;15.00;98.50;;;;;;5058693;28;20041;-64
2023/05/25 10:55:57;;;;;;;26.75;5.63;;;14.90;98.60;;;;;;5046480;28;20048;-66
2023/05/25 10:58:27;;;;;;;34.75;5.90;;;14.90;99.00;;;;;;5044870;28;20060;-61
2023/05/25 11:01:04;;;;;;;25.55;6.32;;;14.80;99.40;;;;;;5045094;28;20049;-64
2023/05/25 11:03:49;;;;;;;26.98;6.38;;;14.60;99.90;;;;;;5044181;28;20072;-62
2023/05/25 11:06:20;;;;;;;;;;;14.50;99.90;;;;;;5046120;28;20273;-63
2023/05/25 11:08:55;;;;;;;38.88;7.57;;;14.40;99.60;;;;;;5097961;28;20123;-63
2023/05/25 11:11:41;;;;;;;31.90;7.15;;;14.30;99.90;;;;;;5057961;28;20047;-65
2023/05/25 11:14:26;;;;;;;29.58;6.03;;;14.20;99.90;;;;;;5040617;28;20064;-65
2023/05/25 11:17:17;;;;;;;32.83;6.78;;;14.20;99.90;;;;;;5046626;28;20805;-62
2023/05/25 11:19:50;;;;;;;32.95;6.75;;;14.00;99.90;;;;;;5045636;28;20120;-64
2023/05/25 11:22:19;;;;;;;31.23;6.07;;;14.00;99.90;;;;;;5044606;28;20037;-63
2023/05/25 11:24:50;;;;;;;32.60;7.10;;;13.80;99.90;;;;;;5044570;28;20114;-63
2023/05/25 11:27:22;;;;;;;32.25;6.65;;;13.80;99.90;;;;;;5060455;28;20365;-63
2023/05/25 11:29:52;;;;;;;29.40;6.97;;;13.80;99.90;;;;;;5044826;28;20041;-61
2023/05/25 11:32:18;;;;;;;36.33;7.00;;;13.80;99.90;;;;;;5044380;28;20443;-66
2023/05/25 11:34:46;;;;;;;37.28;7.72;;;13.80;99.90;;;;;;5044608;28;20048;-67
2023/05/25 11:37:21;;;;;;;30.02;6.72;;;13.70;99.90;;;;;;5045166;28;20778;-64
2023/05/25 11:39:48;;;;;;;35.80;7.68;;;13.80;99.90;;;;;;5044657;28;20071;-64
2023/05/25 11:42:15;;;;;;;42.60;7.47;;;13.90;99.90;;;;;;5045024;28;20036;-63
2023/05/25 11:44:42;;;;;;;34.72;7.10;;;13.90;99.90;;;;;;5044617;28;20670;-64
2023/05/25 11:47:12;;;;;;;29.30;5.63;;;14.00;99.90;;;;;;5043833;28;20439;-66
2023/05/25 11:49:44;;;;;;;27.90;5.95;;;14.30;99.90;;;;;;5046065;28;20095;-63
2023/05/25 11:52:12;;;;;;;29.85;6.10;;;14.60;99.90;;;;;;5044891;28;20567;-64
2023/05/25 11:54:41;;;;;;;28.85;6.32;;;14.70;99.90;;;;;;5043604;28;20079;-64
2023/05/25 11:57:18;;;;;;;29.10;6.45;;;14.70;99.90;;;;;;5059291;28;20044;-62
2023/05/25 11:59:54;;;;;;;32.20;7.07;;;14.60;98.60;;;;;;5047905;28;20037;-62
2023/05/25 12:02:21;;;;;;;27.98;6.35;;;14.50;99.30;;;;;;5043857;28;20029;-64
2023/05/25 12:04:54;;;;;;;30.83;7.28;;;14.30;99.90;;;;;;5044073;28;20076;-64
2023/05/25 12:07:20;;;;;;;29.30;5.57;;;14.30;99.90;;;;;;5043511;28;20541;-64
2023/05/25 12:09:46;;;;;;;29.02;5.78;;;14.40;99.50;;;;;;5043731;28;20066;-64
2023/05/25 12:12:12;;;;;;;34.08;6.18;;;14.50;98.80;;;;;;5043271;28;20825;-62
2023/05/25 12:14:50;;;;;;;34.95;5.68;;;14.70;99.00;;;;;;5043238;28;20037;-64
2023/05/25 12:17:17;;;;;;;34.58;6.30;;;14.60;97.50;;;;;;5045134;28;20037;-64
2023/05/25 12:19:44;;;;;;;25.90;6.55;;;14.70;98.20;;;;;;5060472;28;20627;-65
2023/05/25 12:22:11;;;;;;;30.88;6.00;;;14.60;98.40;;;;;;5052328;28;20144;-66
2023/05/25 12:24:39;;;;;;;26.33;5.53;;;14.50;98.90;;;;;;5042967;28;20135;-63
2023/05/25 12:27:16;;;;;;;27.65;6.10;;;14.50;98.60;;;;;;5043729;28;20041;-64
2023/05/25 12:29:48;;;;;;;30.88;6.10;;;14.50;98.90;;;;;;5044030;28;20048;-63
2023/05/25 12:32:13;;;;;;;23.00;5.95;;;14.70;99.30;;;;;;5045436;28;20640;-63
2023/05/25 12:34:39;;;;;;;28.95;5.80;;;14.80;99.50;;;;;;5059969;28;20076;-65
2023/05/25 12:37:19;;;;;;;27.42;5.88;;;14.70;98.70;;;;;;5043451;28;20712;-64
2023/05/25 12:39:47;;;;;;;28.50;5.97;;;14.70;99.20;;;;;;5044549;28;20044;-65